createdAt,value
2023-04-17T00:01:26.560Z,52.52
2023-04-17T00:03:53.211Z,52.33
2023-04-17T00:06:19.906Z,52.95
2023-04-17T00:08:46.838Z,52.75
2023-04-17T00:11:13.539Z,52.57
2023-04-17T00:13:40.194Z,52.33
2023-04-17T00:16:07.486Z,52.56
2023-04-17T00:18:34.022Z,52.25
2023-04-17T00:21:00.708Z,52.12
2023-04-17T00:23:27.311Z,52.04
2023-04-17T00:25:53.838Z,52.29
2023-04-17T00:28:20.650Z,52.34
2023-04-17T00:30:47.207Z,52.25
2023-04-17T00:33:13.722Z,52.32
2023-04-17T00:35:40.255Z,52.55
2023-04-17T00:38:09.130Z,52.49
2023-04-17T00:40:35.951Z,52.37
2023-04-17T00:43:02.824Z,52.34
2023-04-17T00:45:30.017Z,52.54
2023-04-17T00:47:57.391Z,52.32
2023-04-17T00:50:23.982Z,52.53
2023-04-17T00:52:50.886Z,52.38
2023-04-17T00:55:17.661Z,52.32
2023-04-17T00:57:44.222Z,52.80
2023-04-17T01:00:11.459Z,52.53
2023-04-17T01:02:38.113Z,52.15
2023-04-17T01:05:05.128Z,52.44
2023-04-17T01:07:31.637Z,52.38
2023-04-17T01:09:58.210Z,52.80
2023-04-17T01:12:25.175Z,52.55
2023-04-17T01:14:54.907Z,52.76
2023-04-17T01:17:21.974Z,52.61
2023-04-17T01:19:49.214Z,52.48
2023-04-17T01:22:16.573Z,52.79
2023-04-17T01:24:43.291Z,52.56
2023-04-17T01:27:09.862Z,52.48
2023-04-17T01:29:36.358Z,52.66
2023-04-17T01:32:02.904Z,52.60
2023-04-17T01:34:29.386Z,52.29
2023-04-17T01:36:56.051Z,52.11
2023-04-17T01:39:22.635Z,52.46
2023-04-17T01:41:49.233Z,52.56
2023-04-17T01:44:15.824Z,52.38
2023-04-17T01:46:42.472Z,52.37
2023-04-17T01:49:09.232Z,52.56
2023-04-17T01:51:35.878Z,52.74
2023-04-17T01:54:02.396Z,52.30
2023-04-17T01:56:29.209Z,52.65
2023-04-17T01:58:55.777Z,52.54
2023-04-17T02:01:22.398Z,52.78
2023-04-17T02:03:49.076Z,52.66
2023-04-17T02:06:16.308Z,52.42
2023-04-17T02:08:42.962Z,53.39
2023-04-17T02:11:10.269Z,52.39
2023-04-17T02:13:36.844Z,52.39
2023-04-17T02:16:03.457Z,52.47
2023-04-17T02:18:30.030Z,52.53
2023-04-17T02:20:56.598Z,52.36
2023-04-17T02:23:23.114Z,52.55
2023-04-17T02:25:50.082Z,52.49
2023-04-17T02:28:16.794Z,52.59
2023-04-17T02:30:43.406Z,52.46
2023-04-17T02:33:10.338Z,52.63
2023-04-17T02:35:36.876Z,52.41
2023-04-17T02:38:03.492Z,52.47
2023-04-17T02:40:30.010Z,52.25
2023-04-17T02:42:56.828Z,52.35
2023-04-17T02:45:23.331Z,52.99
2023-04-17T02:47:50.099Z,52.19
2023-04-17T02:50:16.769Z,53.19
2023-04-17T02:52:43.261Z,52.59
2023-04-17T02:55:09.912Z,52.61
2023-04-17T02:57:36.402Z,52.45
2023-04-17T03:00:07.857Z,52.56
2023-04-17T03:02:34.582Z,52.63
2023-04-17T03:05:04.224Z,52.71
2023-04-17T03:07:30.922Z,52.60
2023-04-17T03:09:57.580Z,52.73
2023-04-17T03:12:24.182Z,52.25
2023-04-17T03:14:50.946Z,52.65
2023-04-17T03:17:17.654Z,52.49
2023-04-17T03:19:44.151Z,52.67
2023-04-17T03:22:12.758Z,52.89
2023-04-17T03:24:41.299Z,52.65
2023-04-17T03:27:07.830Z,52.72
2023-04-17T03:29:34.389Z,52.79
2023-04-17T03:32:00.971Z,52.41
2023-04-17T03:34:29.031Z,52.58
2023-04-17T03:36:55.875Z,52.48
2023-04-17T03:39:22.492Z,52.56
2023-04-17T03:41:49.001Z,52.58
2023-04-17T03:44:17.279Z,52.18
2023-04-17T03:46:43.832Z,52.65
2023-04-17T03:49:10.598Z,52.73
2023-04-17T03:51:37.334Z,52.57
2023-04-17T03:54:03.922Z,52.60
2023-04-17T03:56:30.547Z,52.51
2023-04-17T03:58:57.070Z,52.73
2023-04-17T04:01:28.120Z,52.54
2023-04-17T04:03:55.460Z,52.72
2023-04-17T04:06:22.493Z,52.92
2023-04-17T04:08:49.460Z,52.90
2023-04-17T04:11:16.288Z,53.24
2023-04-17T04:13:42.822Z,53.46
2023-04-17T04:16:09.677Z,53.35
2023-04-17T04:18:36.546Z,53.65
2023-04-17T04:21:03.131Z,53.54
2023-04-17T04:23:30.654Z,53.34
2023-04-17T04:25:58.053Z,53.15
2023-04-17T04:28:24.598Z,53.64
2023-04-17T04:30:53.044Z,53.32
2023-04-17T04:33:21.032Z,53.64
2023-04-17T04:35:48.232Z,53.56
2023-04-17T04:38:15.425Z,53.47
2023-04-17T04:40:43.814Z,53.67
2023-04-17T04:43:10.533Z,53.14
2023-04-17T04:45:37.135Z,49.20
2023-04-17T04:48:03.821Z,48.04
2023-04-17T04:50:30.951Z,47.29
2023-04-17T04:52:57.459Z,46.41
2023-04-17T04:55:24.537Z,46.24
2023-04-17T04:57:53.400Z,45.06
2023-04-17T05:00:20.534Z,45.33
2023-04-17T05:02:47.252Z,44.95
2023-04-17T05:05:14.092Z,45.14
2023-04-17T05:07:40.894Z,45.14
2023-04-17T05:10:07.964Z,45.78
2023-04-17T05:12:35.231Z,46.39
2023-04-17T05:15:01.922Z,46.72
2023-04-17T05:17:28.484Z,47.41
2023-04-17T05:19:55.011Z,47.80
2023-04-17T05:22:21.782Z,48.17
2023-04-17T05:24:48.397Z,48.34
2023-04-17T05:27:14.910Z,48.00
2023-04-17T05:29:41.443Z,49.07
2023-04-17T05:32:08.116Z,49.21
2023-04-17T05:34:34.860Z,49.58
2023-04-17T05:37:01.444Z,49.33
2023-04-17T05:39:28.015Z,48.96
2023-04-17T05:41:54.532Z,48.17
2023-04-17T05:44:21.060Z,47.79
2023-04-17T05:46:47.537Z,47.48
2023-04-17T05:49:14.028Z,47.25
2023-04-17T05:51:40.623Z,47.81
2023-04-17T05:54:07.166Z,47.44
2023-04-17T05:56:33.675Z,47.25
2023-04-17T05:59:00.306Z,47.98
2023-04-17T06:01:26.827Z,48.59
2023-04-17T06:03:53.583Z,48.53
2023-04-17T06:06:20.384Z,48.47
2023-04-17T06:08:46.883Z,48.71
2023-04-17T06:11:15.698Z,49.16
2023-04-17T06:13:42.368Z,48.25
2023-04-17T06:16:08.922Z,47.46
2023-04-17T06:18:35.614Z,47.53
2023-04-17T06:21:02.184Z,48.17
2023-04-17T06:23:28.729Z,47.66
2023-04-17T06:25:55.221Z,48.12
2023-04-17T06:28:21.812Z,49.06
2023-04-17T06:30:48.766Z,48.53
2023-04-17T06:33:15.356Z,49.40
2023-04-17T06:35:41.922Z,49.44
2023-04-17T06:38:09.034Z,49.42
2023-04-17T06:40:35.613Z,49.44
2023-04-17T06:43:02.137Z,49.17
2023-04-17T06:45:28.675Z,49.41
2023-04-17T06:47:55.298Z,49.59
2023-04-17T06:50:21.842Z,49.21
2023-04-17T06:52:48.373Z,49.86
2023-04-17T06:55:14.935Z,49.53
2023-04-17T06:57:41.544Z,49.73
2023-04-17T07:00:08.733Z,51.22
2023-04-17T07:02:35.498Z,54.41
2023-04-17T07:05:02.207Z,55.97
2023-04-17T07:07:30.757Z,57.40
2023-04-17T07:09:57.520Z,56.43
2023-04-17T07:12:24.047Z,56.83
2023-04-17T07:14:51.195Z,56.74
2023-04-17T07:17:18.046Z,55.56
2023-04-17T07:19:44.676Z,54.26
2023-04-17T07:22:11.182Z,52.21
2023-04-17T07:24:38.964Z,51.32
2023-04-17T07:27:07.310Z,50.32
2023-04-17T07:29:33.883Z,50.03
2023-04-17T07:32:00.588Z,49.32
2023-04-17T07:34:27.249Z,49.51
2023-04-17T07:36:53.891Z,49.78
2023-04-17T07:39:20.551Z,49.83
2023-04-17T07:41:47.107Z,50.29
2023-04-17T07:44:13.720Z,50.43
2023-04-17T07:46:41.315Z,50.75
2023-04-17T07:49:11.481Z,50.71
2023-04-17T07:51:41.019Z,50.68
2023-04-17T07:54:07.711Z,49.83
2023-04-17T07:56:34.629Z,50.75
2023-04-17T07:59:01.239Z,50.95
2023-04-17T08:01:27.983Z,50.68
2023-04-17T08:03:55.642Z,50.64
2023-04-17T08:06:22.316Z,50.03
2023-04-17T08:08:48.838Z,50.05
2023-04-17T08:11:15.564Z,49.80
2023-04-17T08:13:42.162Z,49.77
2023-04-17T08:16:09.049Z,49.57
2023-04-17T08:18:37.519Z,49.47
2023-04-17T08:21:04.439Z,49.66
2023-04-17T08:23:31.040Z,49.57
2023-04-17T08:25:58.324Z,49.27
2023-04-17T08:28:25.129Z,49.75
2023-04-17T08:30:51.929Z,49.68
2023-04-17T08:33:18.721Z,49.46
2023-04-17T08:35:45.376Z,49.24
2023-04-17T08:38:14.156Z,49.13
2023-04-17T08:40:47.081Z,49.09
2023-04-17T08:43:18.789Z,49.44
2023-04-17T08:45:56.686Z,49.38
2023-04-17T08:48:23.573Z,49.51
2023-04-17T08:50:51.488Z,49.72
2023-04-17T08:53:18.519Z,49.62
2023-04-17T08:55:45.461Z,49.95
2023-04-17T08:58:12.688Z,49.83
2023-04-17T09:00:40.904Z,49.92
2023-04-17T09:03:09.174Z,50.49
2023-04-17T09:05:38.961Z,50.72
2023-04-17T09:08:13.155Z,51.22
2023-04-17T09:10:49.236Z,51.28
2023-04-17T09:13:20.829Z,51.72
2023-04-17T09:15:48.699Z,51.83
2023-04-17T09:18:25.847Z,52.01
2023-04-17T09:20:52.487Z,51.81
2023-04-17T09:23:19.115Z,52.33
2023-04-17T09:25:46.191Z,52.29
2023-04-17T09:28:14.515Z,52.45
2023-04-17T09:30:41.295Z,52.52
2023-04-17T09:33:09.615Z,52.60
2023-04-17T09:35:40.078Z,52.67
2023-04-17T09:38:07.159Z,52.40
2023-04-17T09:40:41.245Z,52.22
2023-04-17T09:43:09.890Z,52.36
2023-04-17T09:45:39.257Z,52.38
2023-04-17T09:48:07.390Z,52.15
2023-04-17T09:50:35.005Z,51.88
2023-04-17T09:53:04.347Z,52.05
2023-04-17T09:55:33.723Z,51.91
2023-04-17T09:58:04.659Z,52.10
2023-04-17T10:00:31.368Z,52.20
2023-04-17T10:02:58.768Z,52.10
2023-04-17T10:05:29.102Z,52.15
2023-04-17T10:07:56.137Z,51.97
2023-04-17T10:10:36.536Z,52.02
2023-04-17T10:13:04.506Z,52.13
2023-04-17T10:15:31.155Z,52.01
2023-04-17T10:18:24.066Z,51.92
2023-04-17T10:20:53.225Z,51.97
2023-04-17T10:23:35.855Z,51.95
2023-04-17T10:26:27.980Z,52.02
2023-04-17T10:28:55.389Z,51.89
2023-04-17T10:31:23.560Z,51.98
2023-04-17T10:33:50.966Z,52.03
2023-04-17T10:36:39.244Z,51.98
2023-04-17T10:39:18.361Z,51.82
2023-04-17T10:42:03.206Z,51.84
2023-04-17T10:44:37.914Z,51.81
2023-04-17T10:49:54.239Z,51.81
2023-04-17T10:52:32.787Z,51.71
2023-04-17T10:55:06.473Z,51.67
2023-04-17T10:57:55.758Z,51.78
2023-04-17T11:00:51.525Z,51.82
2023-04-17T11:03:18.314Z,51.32
2023-04-17T11:05:45.916Z,51.81
2023-04-17T11:08:12.464Z,51.69
2023-04-17T11:10:39.041Z,51.68
2023-04-17T11:13:05.637Z,51.76
2023-04-17T11:15:37.097Z,51.68
2023-04-17T11:18:03.736Z,51.78
2023-04-17T11:20:31.389Z,51.72
2023-04-17T11:23:02.107Z,51.79
2023-04-17T11:25:31.880Z,51.56
2023-04-17T11:27:58.859Z,51.54
2023-04-17T11:30:35.291Z,51.66
2023-04-17T11:33:05.543Z,51.55
2023-04-17T11:35:33.264Z,51.60
2023-04-17T11:38:20.951Z,51.50
2023-04-17T11:40:52.077Z,51.58
2023-04-17T11:43:19.564Z,51.64
2023-04-17T11:45:47.752Z,51.71
2023-04-17T11:48:15.182Z,51.58
2023-04-17T11:50:43.317Z,51.57
2023-04-17T11:53:12.965Z,51.65
2023-04-17T11:55:39.863Z,51.39
2023-04-17T11:58:07.389Z,51.48
2023-04-17T12:00:34.187Z,51.56
2023-04-17T12:03:02.893Z,51.34
2023-04-17T12:05:30.558Z,51.52
2023-04-17T12:08:04.550Z,51.52
2023-04-17T12:10:49.265Z,51.47
2023-04-17T12:13:16.061Z,51.76
2023-04-17T12:15:42.713Z,51.51
2023-04-17T12:18:10.008Z,51.24
2023-04-17T12:20:36.831Z,51.52
2023-04-17T12:23:04.119Z,51.49
2023-04-17T12:25:31.377Z,51.54
2023-04-17T12:27:59.226Z,51.36
2023-04-17T12:30:26.697Z,51.58
2023-04-17T12:32:54.028Z,51.03
2023-04-17T12:35:21.232Z,50.51
2023-04-17T12:37:51.526Z,50.56
2023-04-17T12:40:18.972Z,50.92
2023-04-17T12:42:49.499Z,50.63
2023-04-17T12:45:16.976Z,50.86
2023-04-17T12:47:43.708Z,50.77
2023-04-17T12:50:11.724Z,50.89
2023-04-17T12:52:39.008Z,50.91
2023-04-17T12:55:07.430Z,50.99
2023-04-17T12:57:35.318Z,51.09
2023-04-17T13:00:02.015Z,51.03
2023-04-17T13:02:28.709Z,51.26
2023-04-17T13:04:56.282Z,51.06
2023-04-17T13:07:22.906Z,51.25
2023-04-17T13:09:49.453Z,51.21
2023-04-17T13:12:16.772Z,51.47
2023-04-17T13:14:43.435Z,51.12
2023-04-17T13:17:10.315Z,51.15
2023-04-17T13:19:36.981Z,51.18
2023-04-17T13:22:03.636Z,50.98
2023-04-17T13:24:30.199Z,51.21
2023-04-17T13:26:59.559Z,51.30
2023-04-17T13:29:26.131Z,51.08
2023-04-17T13:31:52.797Z,51.17
2023-04-17T13:34:19.826Z,50.97
2023-04-17T13:36:47.019Z,51.10
2023-04-17T13:39:13.838Z,51.15
2023-04-17T13:41:40.642Z,51.30
2023-04-17T13:44:07.295Z,51.13
2023-04-17T13:46:34.384Z,51.19
2023-04-17T13:49:00.957Z,50.79
2023-04-17T13:51:27.562Z,51.36
2023-04-17T13:53:54.130Z,51.34
2023-04-17T13:56:23.377Z,51.34
2023-04-17T13:58:50.434Z,51.26
2023-04-17T14:01:17.472Z,51.43
2023-04-17T14:03:46.079Z,51.44
2023-04-17T14:06:13.222Z,51.29
2023-04-17T14:08:40.378Z,51.38
2023-04-17T14:11:07.935Z,51.29
2023-04-17T14:13:34.490Z,51.27
2023-04-17T14:16:01.173Z,51.45
2023-04-17T14:18:28.544Z,51.47
2023-04-17T14:20:55.510Z,51.53
2023-04-17T14:23:22.097Z,51.47
2023-04-17T14:25:48.849Z,51.17
2023-04-17T14:28:16.239Z,51.07
2023-04-17T14:30:42.799Z,51.33
2023-04-17T14:33:09.372Z,51.58
2023-04-17T14:35:35.938Z,51.18
2023-04-17T14:38:04.962Z,51.56
2023-04-17T14:40:31.694Z,51.44
2023-04-17T14:42:58.200Z,51.48
2023-04-17T14:45:24.762Z,51.12
2023-04-17T14:47:51.363Z,51.52
2023-04-17T14:50:17.938Z,51.12
2023-04-17T14:52:44.517Z,51.20
2023-04-17T14:55:11.877Z,51.25
2023-04-17T14:57:38.791Z,51.31
2023-04-17T15:00:07.122Z,51.31
2023-04-17T15:02:38.432Z,51.31
2023-04-17T15:05:06.153Z,51.27
2023-04-17T15:07:32.687Z,51.61
2023-04-17T15:09:59.384Z,51.33
2023-04-17T15:12:25.941Z,51.10
2023-04-17T15:14:52.537Z,51.10
2023-04-17T15:17:19.095Z,51.10
2023-04-17T15:19:45.653Z,51.00
2023-04-17T15:22:12.189Z,51.44
2023-04-17T15:24:38.730Z,51.35
2023-04-17T15:27:05.310Z,51.53
2023-04-17T15:29:31.837Z,50.92
2023-04-17T15:31:59.140Z,51.24
2023-04-17T15:34:25.863Z,51.12
2023-04-17T15:36:52.422Z,51.42
2023-04-17T15:39:19.713Z,51.16
2023-04-17T15:41:46.283Z,51.22
2023-04-17T15:44:12.851Z,51.24
2023-04-17T15:46:39.532Z,51.52
2023-04-17T15:49:09.151Z,50.71
2023-04-17T15:51:36.096Z,51.39
2023-04-17T15:54:02.592Z,51.03
2023-04-17T15:56:29.137Z,51.09
2023-04-17T15:58:55.727Z,51.08
2023-04-17T16:01:22.366Z,52.03
2023-04-17T16:03:49.051Z,51.39
2023-04-17T16:06:15.900Z,51.26
2023-04-17T16:08:42.485Z,51.16
2023-04-17T16:11:10.913Z,51.71
2023-04-17T16:13:37.452Z,50.96
2023-04-17T16:16:05.042Z,51.24
2023-04-17T16:18:31.651Z,51.06
2023-04-17T16:20:58.146Z,50.91
2023-04-17T16:23:24.692Z,50.83
2023-04-17T16:25:51.300Z,51.21
2023-04-17T16:28:17.879Z,51.33
2023-04-17T16:30:44.416Z,51.07
2023-04-17T16:33:11.006Z,51.81
2023-04-17T16:35:37.522Z,51.87
2023-04-17T16:38:04.088Z,51.36
2023-04-17T16:40:31.024Z,51.16
2023-04-17T16:42:57.603Z,51.16
2023-04-17T16:45:24.145Z,51.38
2023-04-17T16:47:50.860Z,51.58
2023-04-17T16:50:17.526Z,51.32
2023-04-17T16:52:44.051Z,50.96
2023-04-17T16:55:10.592Z,51.64
2023-04-17T16:57:38.264Z,51.56
2023-04-17T17:00:05.515Z,51.49
2023-04-17T17:02:32.103Z,51.53
2023-04-17T17:04:58.685Z,52.07
2023-04-17T17:07:25.209Z,51.56
2023-04-17T17:09:51.748Z,51.79
2023-04-17T17:12:18.327Z,51.61
2023-04-17T17:14:44.878Z,51.65
2023-04-17T17:17:11.407Z,51.65
2023-04-17T17:19:37.911Z,51.96
2023-04-17T17:22:04.421Z,51.56
2023-04-17T17:24:31.406Z,51.78
2023-04-17T17:26:57.948Z,51.74
2023-04-17T17:29:24.470Z,51.16
2023-04-17T17:31:51.062Z,52.17
2023-04-17T17:34:26.025Z,51.73
2023-04-17T17:36:53.476Z,51.46
2023-04-17T17:39:21.609Z,51.56
2023-04-17T17:41:48.496Z,51.52
2023-04-17T17:44:15.254Z,51.52
2023-04-17T17:46:42.060Z,51.53
2023-04-17T17:49:08.597Z,51.93
2023-04-17T17:51:35.281Z,52.14
2023-04-17T17:54:01.835Z,51.42
2023-04-17T17:56:28.530Z,52.17
2023-04-17T17:58:55.100Z,52.00
2023-04-17T18:01:24.531Z,52.30
2023-04-17T18:03:51.528Z,51.79
2023-04-17T18:06:18.382Z,51.76
2023-04-17T18:08:44.923Z,51.85
2023-04-17T18:11:13.594Z,52.06
2023-04-17T18:13:40.130Z,51.82
2023-04-17T18:16:07.014Z,52.00
2023-04-17T18:18:33.550Z,52.41
2023-04-17T18:21:00.121Z,52.45
2023-04-17T18:23:26.710Z,52.23
2023-04-17T18:25:59.708Z,52.08
2023-04-17T18:28:26.661Z,52.04
2023-04-17T18:30:53.280Z,52.21
2023-04-17T18:33:19.972Z,52.16
2023-04-17T18:35:46.595Z,52.11
2023-04-17T18:38:13.194Z,52.08
2023-04-17T18:40:39.730Z,51.94
2023-04-17T18:43:06.294Z,52.54
2023-04-17T18:45:32.822Z,52.08
2023-04-17T18:47:59.486Z,52.37
2023-04-17T18:50:26.968Z,52.22
2023-04-17T18:52:53.533Z,52.69
2023-04-17T18:55:20.069Z,52.37
2023-04-17T18:57:46.626Z,52.06
2023-04-17T19:00:13.448Z,52.12
2023-04-17T19:02:40.720Z,52.16
2023-04-17T19:05:07.884Z,52.22
2023-04-17T19:07:34.478Z,51.75
2023-04-17T19:10:01.012Z,52.11
2023-04-17T19:12:27.531Z,52.15
2023-04-17T19:14:56.276Z,52.10
2023-04-17T19:17:23.871Z,52.25
2023-04-17T19:19:50.657Z,52.10
2023-04-17T19:22:18.446Z,52.64
2023-04-17T19:24:49.575Z,52.20
2023-04-17T19:27:16.804Z,52.24
2023-04-17T19:29:43.418Z,52.13
2023-04-17T19:32:10.651Z,52.20
2023-04-17T19:34:37.192Z,52.26
2023-04-17T19:37:03.778Z,52.22
2023-04-17T19:39:30.370Z,52.14
2023-04-17T19:41:57.023Z,52.20
2023-04-17T19:44:23.939Z,52.20
2023-04-17T19:46:51.370Z,52.39
2023-04-17T19:49:17.903Z,52.57
2023-04-17T19:51:44.426Z,52.56
2023-04-17T19:54:12.151Z,52.51
2023-04-17T19:56:39.322Z,52.26
2023-04-17T19:59:06.152Z,52.15
2023-04-17T20:01:32.747Z,52.35
2023-04-17T20:03:59.556Z,51.82
2023-04-17T20:06:26.731Z,52.41
2023-04-17T20:08:53.795Z,52.18
2023-04-17T20:11:20.487Z,52.06
2023-04-17T20:13:46.992Z,52.61
2023-04-17T20:16:13.566Z,52.60
2023-04-17T20:18:41.561Z,52.22
2023-04-17T20:21:08.130Z,52.18
2023-04-17T20:23:34.662Z,52.24
2023-04-17T20:26:03.164Z,52.42
2023-04-17T20:28:29.665Z,51.99
2023-04-17T20:30:56.378Z,52.39
2023-04-17T20:33:22.987Z,52.42
2023-04-17T20:35:49.608Z,52.99
2023-04-17T20:38:16.112Z,52.79
2023-04-17T20:40:42.765Z,52.46
2023-04-17T20:43:09.314Z,52.66
2023-04-17T20:45:35.862Z,52.50
2023-04-17T20:48:02.468Z,51.78
2023-04-17T20:50:29.052Z,52.33
2023-04-17T20:52:55.572Z,52.07
2023-04-17T20:55:22.276Z,52.20
2023-04-17T20:57:48.877Z,52.21
2023-04-17T21:00:15.863Z,52.14
2023-04-17T21:02:43.549Z,52.10
2023-04-17T21:05:10.230Z,52.31
2023-04-17T21:07:36.813Z,52.44
2023-04-17T21:10:03.792Z,52.25
2023-04-17T21:12:32.711Z,52.13
2023-04-17T21:14:59.369Z,51.92
2023-04-17T21:17:25.976Z,52.20
2023-04-17T21:19:52.649Z,52.49
2023-04-17T21:22:19.190Z,52.52
2023-04-17T21:24:45.781Z,52.23
2023-04-17T21:27:12.331Z,52.65
2023-04-17T21:29:38.919Z,52.54
2023-04-17T21:32:05.672Z,52.20
2023-04-17T21:34:32.186Z,52.45
2023-04-17T21:36:59.702Z,52.29
2023-04-17T21:39:26.286Z,52.36
2023-04-17T21:41:52.864Z,51.96
2023-04-17T21:44:19.456Z,52.38
2023-04-17T21:46:46.265Z,52.38
2023-04-17T21:49:12.925Z,52.34
2023-04-17T21:51:39.842Z,51.90
2023-04-17T21:54:06.410Z,52.28
2023-04-17T21:56:33.044Z,52.80
2023-04-17T21:58:59.651Z,52.32
2023-04-17T22:01:26.259Z,52.43
2023-04-17T22:03:52.872Z,52.41
2023-04-17T22:06:19.407Z,52.48
2023-04-17T22:08:46.474Z,52.15
2023-04-17T22:11:13.010Z,52.56
2023-04-17T22:13:39.612Z,52.14
2023-04-17T22:16:06.438Z,52.40
2023-04-17T22:18:33.043Z,52.41
2023-04-17T22:20:59.618Z,52.21
2023-04-17T22:23:26.175Z,52.51
2023-04-17T22:25:52.720Z,52.56
2023-04-17T22:28:19.319Z,52.52
2023-04-17T22:30:49.270Z,52.36
2023-04-17T22:33:15.930Z,52.12
2023-04-17T22:35:42.428Z,52.47
2023-04-17T22:38:08.978Z,52.54
2023-04-17T22:40:35.512Z,52.01
2023-04-17T22:43:02.090Z,52.68
2023-04-17T22:45:28.654Z,52.77
2023-04-17T22:47:55.253Z,52.79
2023-04-17T22:50:21.831Z,52.26
2023-04-17T22:52:48.344Z,52.54
2023-04-17T22:55:15.260Z,52.57
2023-04-17T22:57:41.759Z,52.91
2023-04-17T23:00:11.588Z,52.58
2023-04-17T23:02:38.214Z,52.49
2023-04-17T23:05:06.015Z,52.44
2023-04-17T23:07:32.711Z,52.54
2023-04-17T23:09:59.296Z,52.44
2023-04-17T23:12:25.818Z,52.46
2023-04-17T23:14:52.337Z,52.26
2023-04-17T23:17:18.892Z,52.45
2023-04-17T23:19:45.574Z,52.69
2023-04-17T23:22:12.092Z,52.40
2023-04-17T23:24:38.693Z,52.49
2023-04-17T23:27:05.262Z,51.99
2023-04-17T23:29:31.837Z,52.11
2023-04-17T23:31:58.462Z,52.82
2023-04-17T23:34:26.039Z,52.56
2023-04-17T23:36:52.579Z,52.74
2023-04-17T23:39:19.155Z,52.60
2023-04-17T23:41:45.679Z,53.09
2023-04-17T23:44:12.452Z,52.61
2023-04-17T23:46:39.370Z,52.81
2023-04-17T23:49:05.966Z,52.61
2023-04-17T23:51:32.574Z,52.66
2023-04-17T23:53:59.402Z,52.48
2023-04-17T23:56:26.049Z,52.55
2023-04-17T23:58:52.850Z,52.74
